createdAt,value
2019-04-27T00:02:03.690Z,100957.10
2019-04-27T00:04:52.844Z,100961.45
2019-04-27T00:07:59.341Z,100952.31
2019-04-27T00:10:30.845Z,100949.70
2019-04-27T00:13:02.197Z,100945.37
2019-04-27T00:15:47.298Z,100940.59
2019-04-27T00:18:56.446Z,100949.69
2019-04-27T00:21:35.014Z,100946.25
2019-04-27T00:24:04.023Z,100953.18
2019-04-27T00:26:33.503Z,100940.16
2019-04-27T00:29:03.739Z,100921.48
2019-04-27T00:31:33.734Z,100914.55
2019-04-27T00:34:03.661Z,100912.38
2019-04-27T00:36:43.513Z,100930.59
2019-04-27T00:39:25.180Z,100929.30
2019-04-27T00:41:53.860Z,100929.29
2019-04-27T00:44:23.701Z,100909.75
2019-04-27T00:46:53.392Z,100908.47
2019-04-27T00:49:23.874Z,100908.44
2019-04-27T00:51:53.613Z,100919.30
2019-04-27T00:54:23.783Z,100921.02
2019-04-27T00:57:03.211Z,100914.53
2019-04-27T00:59:51.056Z,100922.35
2019-04-27T01:02:37.143Z,100927.99
2019-04-27T01:05:10.742Z,100937.53
2019-04-27T01:07:39.379Z,100949.69
2019-04-27T01:10:08.117Z,100946.22
2019-04-27T01:12:36.762Z,100950.13
2019-04-27T01:15:06.495Z,100943.62
2019-04-27T01:17:35.490Z,100932.75
2019-04-27T01:20:04.995Z,100920.15
2019-04-27T01:22:33.987Z,100908.84
2019-04-27T01:25:02.898Z,100914.92
2019-04-27T01:27:44.469Z,100922.30
2019-04-27T01:30:28.846Z,100924.87
2019-04-27T01:32:57.927Z,100920.06
2019-04-27T01:35:28.850Z,100914.86
2019-04-27T01:37:58.949Z,100924.00
2019-04-27T01:40:29.497Z,100916.59
2019-04-27T01:42:58.880Z,100911.34
2019-04-27T01:45:28.973Z,100920.89
2019-04-27T01:47:59.568Z,100922.62
2019-04-27T01:50:29.024Z,100929.99
2019-04-27T01:52:58.713Z,100929.55
2019-04-27T01:55:29.734Z,100927.81
2019-04-27T01:57:58.711Z,100931.67
2019-04-27T02:00:50.492Z,100932.97
2019-04-27T02:03:22.898Z,100932.05
2019-04-27T02:05:56.059Z,100933.41
2019-04-27T02:08:24.786Z,100942.08
2019-04-27T02:10:53.787Z,100944.19
2019-04-27T02:13:22.417Z,100947.23
2019-04-27T02:15:51.068Z,100953.77
2019-04-27T02:18:20.054Z,100944.67
2019-04-27T02:20:49.232Z,100939.40
2019-04-27T02:23:19.240Z,100942.87
2019-04-27T02:25:49.669Z,100944.55
2019-04-27T02:28:29.580Z,100960.21
2019-04-27T02:31:19.379Z,100965.36
2019-04-27T02:33:55.700Z,100969.59
2019-04-27T02:36:24.704Z,100973.05
2019-04-27T02:38:53.684Z,100963.48
2019-04-27T02:41:22.671Z,100961.75
2019-04-27T02:44:01.772Z,100963.85
2019-04-27T02:46:31.480Z,100960.82
2019-04-27T02:49:06.483Z,100960.45
2019-04-27T02:51:53.776Z,100964.36
2019-04-27T02:54:22.666Z,100967.38
2019-04-27T02:56:52.825Z,100961.66
2019-04-27T02:59:21.708Z,100950.00
2019-04-27T03:02:05.822Z,100951.72
2019-04-27T03:04:35.026Z,100946.45
2019-04-27T03:07:03.655Z,100951.19
2019-04-27T03:09:32.601Z,100923.06
2019-04-27T03:12:03.128Z,100913.53
2019-04-27T03:14:54.457Z,100909.13
2019-04-27T03:17:31.326Z,100908.33
2019-04-27T03:20:19.952Z,100906.61
2019-04-27T03:22:52.660Z,100909.69
2019-04-27T03:25:32.496Z,100907.91
2019-04-27T03:28:10.911Z,100909.55
2019-04-27T03:30:42.639Z,100906.95
2019-04-27T03:33:12.244Z,100907.91
2019-04-27T03:35:43.345Z,100897.87
2019-04-27T03:38:12.519Z,100887.02
2019-04-27T03:40:42.139Z,100886.58
2019-04-27T03:43:19.955Z,100888.31
2019-04-27T03:45:49.709Z,100881.83
2019-04-27T03:48:20.380Z,100882.26
2019-04-27T03:50:56.588Z,100880.50
2019-04-27T03:53:34.045Z,100899.57
2019-04-27T03:56:15.061Z,100911.18
2019-04-27T03:58:49.497Z,100912.06
2019-04-27T04:01:20.295Z,100918.54
2019-04-27T04:03:50.098Z,100919.95
2019-04-27T04:06:19.800Z,100905.20
2019-04-27T04:08:50.566Z,100897.31
2019-04-27T04:11:25.160Z,100884.36
2019-04-27T04:14:00.116Z,100876.17
2019-04-27T04:16:39.464Z,100876.99
2019-04-27T04:19:09.782Z,100870.11
2019-04-27T04:21:40.083Z,100881.76
2019-04-27T04:24:11.944Z,100893.84
2019-04-27T04:26:40.392Z,100898.72
2019-04-27T04:29:10.529Z,100897.06
2019-04-27T04:31:40.403Z,100897.94
2019-04-27T04:34:12.142Z,100875.84
2019-04-27T04:36:42.698Z,100867.19
2019-04-27T04:39:12.550Z,100863.27
2019-04-27T04:42:00.894Z,100859.38
2019-04-27T04:44:50.294Z,100852.95
2019-04-27T04:47:36.335Z,100846.52
2019-04-27T04:50:10.810Z,100844.30
2019-04-27T04:52:36.606Z,100858.09
2019-04-27T04:55:05.907Z,100862.42
2019-04-27T04:57:34.520Z,100869.00
2019-04-27T05:00:03.153Z,100872.89
2019-04-27T05:02:32.069Z,100881.13
2019-04-27T05:05:01.375Z,100892.81
2019-04-27T05:07:30.266Z,100899.67
2019-04-27T05:09:58.883Z,100909.27
2019-04-27T05:12:28.788Z,100898.08
2019-04-27T05:14:59.079Z,100897.65
2019-04-27T05:17:29.628Z,100894.19
2019-04-27T05:19:59.059Z,100901.98
2019-04-27T05:22:29.616Z,100903.33
2019-04-27T05:25:01.204Z,100898.56
2019-04-27T05:27:31.201Z,100901.13
2019-04-27T05:30:00.622Z,100902.09
2019-04-27T05:32:29.662Z,100908.64
2019-04-27T05:34:59.602Z,100912.97
2019-04-27T05:37:31.580Z,100911.72
2019-04-27T05:39:59.695Z,100911.25
2019-04-27T05:42:28.974Z,100919.92
2019-04-27T05:45:06.940Z,100923.42
2019-04-27T05:48:00.785Z,100924.30
2019-04-27T05:50:36.442Z,100923.88
2019-04-27T05:53:00.291Z,100914.76
2019-04-27T05:55:29.218Z,100913.08
2019-04-27T05:57:59.167Z,100913.50
2019-04-27T06:00:29.331Z,100913.51
2019-04-27T06:02:59.124Z,100915.23
2019-04-27T06:05:29.243Z,100919.14
2019-04-27T06:07:58.923Z,100916.11
2019-04-27T06:10:29.551Z,100916.11
2019-04-27T06:12:59.813Z,100913.98
2019-04-27T06:15:30.177Z,100903.14
2019-04-27T06:17:59.630Z,100905.78
2019-04-27T06:20:28.690Z,100905.34
2019-04-27T06:22:58.859Z,100917.06
2019-04-27T06:25:30.533Z,100923.59
2019-04-27T06:27:59.338Z,100924.92
2019-04-27T06:30:29.266Z,100909.76
2019-04-27T06:32:59.435Z,100910.59
2019-04-27T06:35:28.876Z,100911.05
2019-04-27T06:37:58.569Z,100909.31
2019-04-27T06:40:28.969Z,100911.50
2019-04-27T06:42:59.477Z,100910.61
2019-04-27T06:45:28.904Z,100909.75
2019-04-27T06:47:59.582Z,100903.66
2019-04-27T06:50:29.587Z,100905.84
2019-04-27T06:52:59.126Z,100915.41
2019-04-27T06:55:29.128Z,100911.48
2019-04-27T06:57:58.961Z,100905.39
2019-04-27T07:00:28.920Z,100908.02
2019-04-27T07:02:59.549Z,100907.53
2019-04-27T07:05:28.906Z,100896.66
2019-04-27T07:07:59.095Z,100898.78
2019-04-27T07:10:28.623Z,100892.63
2019-04-27T07:12:59.715Z,100896.95
2019-04-27T07:15:28.771Z,100907.67
2019-04-27T07:17:58.603Z,100907.23
2019-04-27T07:20:28.730Z,100906.42
2019-04-27T07:22:59.491Z,100898.11
2019-04-27T07:25:28.935Z,100895.52
2019-04-27T07:27:59.195Z,100890.58
2019-04-27T07:30:28.815Z,100895.33
2019-04-27T07:32:58.866Z,100887.87
2019-04-27T07:35:29.612Z,100890.92
2019-04-27T07:37:59.020Z,100885.25
2019-04-27T07:40:30.264Z,100890.50
2019-04-27T07:43:06.079Z,100873.06
2019-04-27T07:45:37.080Z,100879.53
2019-04-27T07:48:06.004Z,100893.42
2019-04-27T07:50:34.999Z,100883.86
2019-04-27T07:53:04.204Z,100876.66
2019-04-27T07:55:33.625Z,100883.69
2019-04-27T07:58:04.958Z,100882.70
2019-04-27T08:00:33.845Z,100891.84
2019-04-27T08:03:02.842Z,100895.34
2019-04-27T08:05:31.563Z,100901.56
2019-04-27T08:08:00.518Z,100888.91
2019-04-27T08:10:29.343Z,100891.13
2019-04-27T08:12:59.689Z,100896.70
2019-04-27T08:15:29.098Z,100888.30
2019-04-27T08:17:59.200Z,100890.65
2019-04-27T08:20:29.384Z,100883.52
2019-04-27T08:22:59.794Z,100876.12
2019-04-27T08:25:32.138Z,100888.73
2019-04-27T08:28:18.867Z,100890.81
2019-04-27T08:30:56.686Z,100887.05
2019-04-27T08:33:25.328Z,100892.19
2019-04-27T08:35:54.265Z,100877.20
2019-04-27T08:38:23.567Z,100887.84
2019-04-27T08:40:52.865Z,100885.50
2019-04-27T08:43:21.754Z,100889.73
2019-04-27T08:45:50.971Z,100894.61
2019-04-27T08:48:33.436Z,100886.00
2019-04-27T08:50:50.884Z,100890.06
2019-04-27T08:53:19.511Z,100889.77
2019-04-27T08:55:49.612Z,100893.57
2019-04-27T08:58:21.243Z,100880.37
2019-04-27T09:00:50.039Z,100879.77
2019-04-27T09:03:19.415Z,100886.29
2019-04-27T09:05:49.020Z,100887.28
2019-04-27T09:08:36.768Z,100898.19
2019-04-27T09:11:16.198Z,100892.91
2019-04-27T09:14:22.575Z,100893.50
2019-04-27T09:16:59.999Z,100893.33
2019-04-27T09:19:39.347Z,100885.52
2019-04-27T09:22:15.967Z,100882.92
2019-04-27T09:24:39.792Z,100878.09
2019-04-27T09:27:09.606Z,100878.89
2019-04-27T09:29:39.455Z,100891.48
2019-04-27T09:32:08.882Z,100894.36
2019-04-27T09:34:38.007Z,100885.18
2019-04-27T09:37:07.746Z,100886.12
2019-04-27T09:39:36.697Z,100875.00
2019-04-27T09:42:06.505Z,100877.36
2019-04-27T09:44:37.144Z,100877.16
2019-04-27T09:47:06.171Z,100872.52
2019-04-27T09:49:36.668Z,100866.80
2019-04-27T09:52:06.353Z,100861.91
2019-04-27T09:54:36.583Z,100862.89
2019-04-27T09:57:06.948Z,100863.34
2019-04-27T09:59:37.787Z,100857.41
2019-04-27T10:02:08.600Z,100869.27
2019-04-27T10:04:37.892Z,100853.92
2019-04-27T10:07:06.706Z,100860.34
2019-04-27T10:09:36.868Z,100862.54
2019-04-27T10:12:07.499Z,100854.05
2019-04-27T10:14:36.665Z,100857.13
2019-04-27T10:17:05.695Z,100848.98
2019-04-27T10:19:36.385Z,100850.50
2019-04-27T10:22:05.787Z,100842.66
2019-04-27T10:24:35.803Z,100851.98
2019-04-27T10:27:07.952Z,100849.84
2019-04-27T10:29:36.945Z,100855.50
2019-04-27T10:32:06.223Z,100847.55
2019-04-27T10:34:35.749Z,100852.48
2019-04-27T10:37:06.074Z,100850.69
2019-04-27T10:39:36.080Z,100844.83
2019-04-27T10:42:06.767Z,100848.79
2019-04-27T10:44:35.960Z,100843.11
2019-04-27T10:47:05.905Z,100846.72
2019-04-27T10:49:34.938Z,100845.94
2019-04-27T10:52:05.748Z,100837.80
2019-04-27T10:54:34.413Z,100849.39
2019-04-27T10:57:03.452Z,100836.06
2019-04-27T10:59:32.346Z,100825.34
2019-04-27T11:02:01.053Z,100831.06
2019-04-27T11:05:00.900Z,100829.94
2019-04-27T11:07:33.583Z,100827.17
2019-04-27T11:10:02.200Z,100820.16
2019-04-27T11:12:31.205Z,100830.00
2019-04-27T11:15:00.194Z,100831.38
2019-04-27T11:17:28.899Z,100825.81
2019-04-27T11:19:57.786Z,100827.48
2019-04-27T11:22:26.771Z,100841.20
2019-04-27T11:24:56.378Z,100842.12
2019-04-27T11:27:25.433Z,100833.70
2019-04-27T11:29:54.142Z,100834.19
2019-04-27T11:32:22.864Z,100831.58
2019-04-27T11:35:16.459Z,100832.27
2019-04-27T11:37:45.748Z,100819.73
2019-04-27T11:40:14.609Z,100822.88
2019-04-27T11:42:43.512Z,100821.02
2019-04-27T11:45:12.603Z,100820.42
2019-04-27T11:47:41.799Z,100813.02
2019-04-27T11:50:11.312Z,100810.75
2019-04-27T11:52:40.609Z,100809.81
2019-04-27T11:55:09.687Z,100811.60
2019-04-27T11:57:39.119Z,100823.97
2019-04-27T12:00:09.327Z,100822.53
2019-04-27T12:02:37.933Z,100822.12
2019-04-27T12:05:07.996Z,100828.25
2019-04-27T12:07:36.961Z,100827.66
2019-04-27T12:10:06.662Z,100826.93
2019-04-27T12:12:36.380Z,100821.32
2019-04-27T12:15:05.888Z,100820.13
2019-04-27T12:17:35.886Z,100807.43
2019-04-27T12:20:05.788Z,100806.66
2019-04-27T12:22:34.436Z,100814.22
2019-04-27T12:25:03.579Z,100810.92
2019-04-27T12:28:03.692Z,100810.30
2019-04-27T12:30:43.492Z,100807.36
2019-04-27T12:33:12.319Z,100803.41
2019-04-27T12:35:41.646Z,100805.69
2019-04-27T12:38:10.620Z,100806.79
2019-04-27T12:40:39.530Z,100799.70
2019-04-27T12:43:08.518Z,100795.39
2019-04-27T12:45:40.297Z,100797.83
2019-04-27T12:48:08.135Z,100796.28
2019-04-27T12:50:37.105Z,100793.34
2019-04-27T12:53:08.120Z,100793.98
2019-04-27T12:56:11.271Z,100786.56
2019-04-27T12:58:47.625Z,100785.44
2019-04-27T13:01:17.856Z,100781.73
2019-04-27T13:03:46.593Z,100771.75
2019-04-27T13:06:15.311Z,100763.64
2019-04-27T13:08:45.758Z,100763.62
2019-04-27T13:11:16.162Z,100769.66
2019-04-27T13:13:45.279Z,100770.97
2019-04-27T13:16:14.273Z,100773.38
2019-04-27T13:18:42.923Z,100775.02
2019-04-27T13:21:11.546Z,100773.00
2019-04-27T13:23:40.181Z,100768.25
2019-04-27T13:26:09.226Z,100762.66
2019-04-27T13:28:38.212Z,100760.69
2019-04-27T13:31:07.532Z,100756.95
2019-04-27T13:33:36.537Z,100743.23
2019-04-27T13:36:07.481Z,100743.64
2019-04-27T13:38:36.578Z,100740.75
2019-04-27T13:41:09.548Z,100743.17
2019-04-27T13:43:38.750Z,100742.41
2019-04-27T13:46:18.989Z,100742.59
2019-04-27T13:49:05.409Z,100741.48
2019-04-27T13:51:57.496Z,100736.56
2019-04-27T13:54:29.086Z,100737.12
2019-04-27T13:56:56.998Z,100737.84
2019-04-27T13:59:25.940Z,100734.17
2019-04-27T14:01:54.569Z,100736.38
2019-04-27T14:04:24.154Z,100731.22
2019-04-27T14:06:53.213Z,100724.17
2019-04-27T14:09:22.120Z,100727.70
2019-04-27T14:11:54.808Z,100728.64
2019-04-27T14:14:23.693Z,100720.02
2019-04-27T14:16:52.332Z,100712.48
2019-04-27T14:19:20.968Z,100713.91
2019-04-27T14:21:49.620Z,100710.66
2019-04-27T14:24:27.717Z,100707.81
2019-04-27T14:26:48.686Z,100711.87
2019-04-27T14:29:18.944Z,100707.73
2019-04-27T14:31:49.724Z,100707.06
2019-04-27T14:34:19.043Z,100711.85
2019-04-27T14:36:48.862Z,100709.61
2019-04-27T14:39:18.496Z,100710.95
2019-04-27T14:41:49.077Z,100708.94
2019-04-27T14:44:18.807Z,100707.06
2019-04-27T14:46:48.531Z,100710.19
2019-04-27T14:49:18.254Z,100711.94
2019-04-27T14:51:48.602Z,100701.81
2019-04-27T14:54:17.765Z,100711.03
2019-04-27T14:56:48.775Z,100707.72
2019-04-27T14:59:18.787Z,100708.13
2019-04-27T15:01:48.769Z,100705.48
2019-04-27T15:04:22.824Z,100708.64
2019-04-27T15:06:51.810Z,100702.58
2019-04-27T15:09:21.111Z,100709.67
2019-04-27T15:11:53.611Z,100711.22
2019-04-27T15:14:23.704Z,100707.75
2019-04-27T15:16:52.668Z,100714.27
2019-04-27T15:19:26.986Z,100715.97
2019-04-27T15:21:58.976Z,100711.82
2019-04-27T15:24:26.358Z,100713.55
2019-04-27T15:26:59.018Z,100716.51
2019-04-27T15:29:27.071Z,100716.51
2019-04-27T15:32:03.157Z,100718.16
2019-04-27T15:34:48.129Z,100712.47
2019-04-27T15:37:35.428Z,100720.40
2019-04-27T15:40:36.004Z,100718.61
2019-04-27T15:43:22.945Z,100721.59
2019-04-27T15:45:53.390Z,100727.22
2019-04-27T15:48:25.071Z,100715.98
2019-04-27T15:50:53.786Z,100710.77
2019-04-27T15:53:26.011Z,100716.95
2019-04-27T15:56:00.091Z,100722.43
2019-04-27T15:58:26.178Z,100722.30
2019-04-27T16:00:56.629Z,100729.41
2019-04-27T16:03:27.311Z,100731.21
2019-04-27T16:05:56.239Z,100719.02
2019-04-27T16:08:25.221Z,100714.67
2019-04-27T16:10:53.930Z,100717.81
2019-04-27T16:13:22.572Z,100710.95
2019-04-27T16:15:54.018Z,100709.49
2019-04-27T16:18:24.490Z,100706.09
2019-04-27T16:20:52.851Z,100698.92
2019-04-27T16:23:21.849Z,100694.11
2019-04-27T16:25:51.545Z,100696.14
2019-04-27T16:28:20.564Z,100701.25
2019-04-27T16:30:50.629Z,100699.38
2019-04-27T16:33:23.382Z,100697.00
2019-04-27T16:35:53.150Z,100702.43
2019-04-27T16:38:38.784Z,100709.35
2019-04-27T16:41:08.160Z,100704.16
2019-04-27T16:43:38.521Z,100709.80
2019-04-27T16:46:08.909Z,100719.02
2019-04-27T16:48:39.006Z,100705.26
2019-04-27T16:51:08.736Z,100716.84
2019-04-27T16:53:41.154Z,100712.89
2019-04-27T16:56:14.707Z,100704.38
2019-04-27T16:58:40.166Z,100708.89
2019-04-27T17:01:18.247Z,100715.78
2019-04-27T17:03:48.461Z,100713.39
2019-04-27T17:06:21.058Z,100708.53
2019-04-27T17:08:49.674Z,100706.20
2019-04-27T17:11:19.626Z,100714.56
2019-04-27T17:13:52.940Z,100709.95
2019-04-27T17:16:43.409Z,100718.06
2019-04-27T17:19:43.745Z,100713.81
2019-04-27T17:22:14.717Z,100707.29
2019-04-27T17:24:46.413Z,100712.14
2019-04-27T17:27:16.562Z,100712.78
2019-04-27T17:29:42.535Z,100715.11
2019-04-27T17:32:33.724Z,100722.59
2019-04-27T17:35:05.016Z,100714.84
2019-04-27T17:37:33.868Z,100721.61
2019-04-27T17:40:03.002Z,100724.01
2019-04-27T17:42:31.631Z,100731.55
2019-04-27T17:45:00.608Z,100734.71
2019-04-27T17:47:30.131Z,100745.36
2019-04-27T17:49:58.973Z,100778.68
2019-04-27T17:52:27.658Z,100802.87
2019-04-27T17:54:56.554Z,100809.64
2019-04-27T17:57:26.553Z,100819.70
2019-04-27T18:00:03.156Z,100830.02
2019-04-27T18:02:33.800Z,100841.17
2019-04-27T18:05:00.373Z,100870.72
2019-04-27T18:07:30.139Z,100887.86
2019-04-27T18:09:58.983Z,100901.36
2019-04-27T18:12:28.494Z,100888.46
2019-04-27T18:14:58.173Z,100884.98
2019-04-27T18:17:31.959Z,100890.18
2019-04-27T18:20:02.976Z,100884.16
2019-04-27T18:22:36.496Z,100889.35
2019-04-27T18:25:09.685Z,100898.90
2019-04-27T18:27:45.095Z,100895.84
2019-04-27T18:30:28.089Z,100895.84
2019-04-27T18:33:00.617Z,100896.73
2019-04-27T18:35:29.678Z,100894.97
2019-04-27T18:38:01.626Z,100900.61
2019-04-27T18:40:32.052Z,100906.69
2019-04-27T18:43:02.013Z,100901.92
2019-04-27T18:45:31.728Z,100907.55
2019-04-27T18:48:06.562Z,100900.21
2019-04-27T18:50:48.403Z,100908.43
2019-04-27T18:53:24.558Z,100898.91
2019-04-27T18:55:59.355Z,100888.48
2019-04-27T18:58:24.601Z,100881.97
2019-04-27T19:00:53.630Z,100875.00
2019-04-27T19:03:22.304Z,100872.84
2019-04-27T19:05:51.345Z,100870.23
2019-04-27T19:08:20.207Z,100875.44
2019-04-27T19:10:51.117Z,100895.86
2019-04-27T19:13:20.028Z,100910.63
2019-04-27T19:15:48.943Z,100910.20
2019-04-27T19:18:18.867Z,100908.45
2019-04-27T19:20:48.244Z,100903.23
2019-04-27T19:23:18.593Z,100897.16
2019-04-27T19:26:09.369Z,100894.99
2019-04-27T19:28:58.258Z,100892.83
2019-04-27T19:31:33.143Z,100900.64
2019-04-27T19:34:02.126Z,100908.88
2019-04-27T19:36:31.072Z,100909.30
2019-04-27T19:38:59.990Z,100910.20
2019-04-27T19:41:29.610Z,100915.39
2019-04-27T19:43:59.867Z,100914.09
2019-04-27T19:46:30.498Z,100908.91
2019-04-27T19:48:59.555Z,100901.94
2019-04-27T19:51:28.356Z,100894.98
2019-04-27T19:53:58.196Z,100896.30
2019-04-27T19:57:44.947Z,100892.39
2019-04-27T20:03:45.916Z,100904.55
2019-04-27T20:13:55.362Z,100914.95
2019-04-27T20:27:46.821Z,100935.81
2019-04-27T20:34:57.993Z,100930.58
2019-04-27T20:38:41.921Z,100927.53
2019-04-27T20:43:51.751Z,100914.50
2019-04-27T20:46:22.672Z,100921.45
2019-04-27T20:48:51.472Z,100919.32
2019-04-27T20:55:53.162Z,100944.03
2019-04-27T20:59:21.945Z,100941.45
2019-04-27T21:02:10.494Z,100929.75
2019-04-27T21:04:53.242Z,100934.06
2019-04-27T21:08:03.028Z,100945.80
2019-04-27T21:10:51.408Z,100951.87
2019-04-27T21:13:22.575Z,100954.89
2019-04-27T21:15:57.778Z,100952.28
2019-04-27T21:18:32.916Z,100956.63
2019-04-27T21:21:28.377Z,100958.80
2019-04-27T21:24:05.242Z,100954.45
2019-04-27T21:26:39.543Z,100954.45
2019-04-27T21:29:11.728Z,100955.34
2019-04-27T21:31:44.475Z,100940.59
2019-04-27T21:34:14.530Z,100940.57
2019-04-27T21:36:43.739Z,100940.16
2019-04-27T21:39:12.715Z,100944.50
2019-04-27T21:41:41.737Z,100937.98
2019-04-27T21:44:11.559Z,100934.08
2019-04-27T21:46:41.813Z,100936.67
2019-04-27T21:49:12.453Z,100933.22
2019-04-27T21:52:01.396Z,100935.82
2019-04-27T21:54:32.729Z,100937.12
2019-04-27T21:57:01.800Z,100935.83
2019-04-27T21:59:30.857Z,100934.06
2019-04-27T22:02:02.301Z,100931.91
2019-04-27T22:04:31.621Z,100937.10
2019-04-27T22:07:01.429Z,100947.11
2019-04-27T22:09:30.716Z,100943.64
2019-04-27T22:12:00.656Z,100943.20
2019-04-27T22:14:30.064Z,100940.58
2019-04-27T22:17:00.738Z,100942.34
2019-04-27T22:19:31.091Z,100947.54
2019-04-27T22:22:01.880Z,100949.27
2019-04-27T22:24:36.861Z,100955.36
2019-04-27T22:27:05.931Z,100955.80
2019-04-27T22:29:34.578Z,100952.77
2019-04-27T22:32:03.642Z,100957.11
2019-04-27T22:34:32.836Z,100957.53
2019-04-27T22:37:02.745Z,100952.76
2019-04-27T22:39:52.476Z,100953.61
2019-04-27T22:42:52.216Z,100954.92
2019-04-27T22:45:24.679Z,100964.02
2019-04-27T22:47:53.567Z,100964.88
2019-04-27T22:50:22.783Z,100967.09
2019-04-27T22:52:51.429Z,100974.03
2019-04-27T22:55:21.998Z,100973.59
2019-04-27T22:57:56.238Z,100970.55
2019-04-27T23:01:01.231Z,100967.50
2019-04-27T23:03:33.975Z,100974.03
2019-04-27T23:06:02.764Z,100972.25
2019-04-27T23:08:31.377Z,100976.19
2019-04-27T23:11:00.588Z,100986.16
2019-04-27T23:13:30.946Z,100989.66
2019-04-27T23:16:01.569Z,100989.66
2019-04-27T23:18:31.175Z,100987.48
2019-04-27T23:21:01.557Z,100984.88
2019-04-27T23:23:31.242Z,100979.69
2019-04-27T23:26:01.795Z,100989.67
2019-04-27T23:28:31.317Z,100976.64
2019-04-27T23:31:06.216Z,100973.16
2019-04-27T23:33:35.966Z,100970.11
2019-04-27T23:36:04.598Z,100967.05
2019-04-27T23:38:33.257Z,100970.10
2019-04-27T23:41:02.147Z,100970.11
2019-04-27T23:43:31.726Z,100968.38
2019-04-27T23:46:01.635Z,100980.09
2019-04-27T23:48:32.124Z,100980.06
2019-04-27T23:51:10.381Z,100976.62
2019-04-27T23:53:41.635Z,100974.85
2019-04-27T23:56:10.299Z,100973.09
2019-04-27T23:58:39.510Z,100978.73
